createdAt,value
2022-10-11T00:02:00.658Z,12.91
2022-10-11T00:04:27.486Z,12.86
2022-10-11T00:06:54.866Z,12.80
2022-10-11T00:09:21.818Z,12.78
2022-10-11T00:11:49.496Z,12.67
2022-10-11T00:14:16.748Z,12.67
2022-10-11T00:16:44.620Z,12.71
2022-10-11T00:19:11.877Z,12.72
2022-10-11T00:21:42.116Z,12.76
2022-10-11T00:24:10.688Z,12.86
2022-10-11T00:26:37.319Z,12.87
2022-10-11T00:29:04.312Z,12.95
2022-10-11T00:31:35.528Z,12.87
2022-10-11T00:34:05.163Z,12.67
2022-10-11T00:36:32.183Z,12.61
2022-10-11T00:38:59.470Z,12.64
2022-10-11T00:41:26.363Z,12.49
2022-10-11T00:44:17.134Z,12.36
2022-10-11T00:46:54.990Z,12.27
2022-10-11T00:49:43.796Z,12.08
2022-10-11T00:52:34.002Z,11.96
2022-10-11T00:55:08.718Z,12.00
2022-10-11T00:57:39.543Z,12.13
2022-10-11T01:00:08.356Z,12.18
2022-10-11T01:02:35.867Z,12.18
2022-10-11T01:05:28.162Z,12.18
2022-10-11T01:07:53.662Z,12.22
2022-10-11T01:10:22.375Z,12.24
2022-10-11T01:13:20.169Z,12.19
2022-10-11T01:16:06.255Z,12.04
2022-10-11T01:18:58.886Z,12.08
2022-10-11T01:21:53.723Z,12.15
2022-10-11T01:24:52.351Z,12.15
2022-10-11T01:27:39.772Z,12.17
2022-10-11T01:30:26.486Z,12.24
2022-10-11T01:33:00.736Z,12.29
2022-10-11T01:35:35.701Z,12.40
2022-10-11T01:38:11.463Z,12.45
2022-10-11T01:40:46.275Z,12.42
2022-10-11T01:43:15.542Z,12.50
2022-10-11T01:45:44.922Z,12.49
2022-10-11T01:48:14.180Z,12.57
2022-10-11T01:50:57.224Z,12.62
2022-10-11T01:54:04.573Z,12.59
2022-10-11T01:56:49.880Z,12.58
2022-10-11T01:59:22.888Z,12.57
2022-10-11T02:02:02.878Z,12.49
2022-10-11T02:04:48.207Z,12.51
2022-10-11T02:07:33.638Z,12.48
2022-10-11T02:10:32.848Z,12.44
2022-10-11T02:13:26.785Z,12.49
2022-10-11T02:15:58.111Z,12.54
2022-10-11T02:18:29.122Z,12.55
2022-10-11T02:20:59.473Z,12.58
2022-10-11T02:23:30.173Z,12.61
2022-10-11T02:25:58.238Z,12.54
2022-10-11T02:28:30.306Z,12.52
2022-10-11T02:30:59.441Z,12.49
2022-10-11T02:33:42.655Z,12.45
2022-10-11T02:36:25.625Z,12.41
2022-10-11T02:38:58.367Z,12.48
2022-10-11T02:41:36.659Z,12.53
2022-10-11T02:44:09.463Z,12.54
2022-10-11T02:46:38.038Z,12.54
2022-10-11T02:49:05.294Z,12.56
2022-10-11T02:51:32.890Z,12.56
2022-10-11T02:54:00.353Z,12.53
2022-10-11T02:56:29.862Z,12.48
2022-10-11T02:58:56.692Z,12.44
2022-10-11T03:01:23.644Z,12.41
2022-10-11T03:03:51.363Z,12.46
2022-10-11T03:06:18.066Z,12.56
2022-10-11T03:08:44.918Z,12.64
2022-10-11T03:11:11.833Z,12.64
2022-10-11T03:13:38.812Z,12.73
2022-10-11T03:16:05.797Z,12.72
2022-10-11T03:18:32.570Z,12.64
2022-10-11T03:20:59.259Z,12.54
2022-10-11T03:23:26.009Z,12.37
2022-10-11T03:25:52.805Z,12.22
2022-10-11T03:28:22.542Z,12.06
2022-10-11T03:30:50.240Z,12.11
2022-10-11T03:33:20.491Z,12.15
2022-10-11T03:35:49.050Z,12.19
2022-10-11T03:38:22.358Z,12.27
2022-10-11T03:40:49.261Z,12.29
2022-10-11T03:43:16.477Z,12.30
2022-10-11T03:45:43.455Z,12.29
2022-10-11T03:48:11.241Z,12.32
2022-10-11T03:50:38.734Z,12.34
2022-10-11T03:53:06.998Z,12.41
2022-10-11T03:55:34.104Z,12.31
2022-10-11T03:58:01.404Z,12.34
2022-10-11T04:00:28.179Z,12.36
2022-10-11T04:02:55.097Z,12.35
2022-10-11T04:05:22.458Z,12.42
2022-10-11T04:07:51.725Z,12.48
2022-10-11T04:10:21.644Z,12.54
2022-10-11T04:12:48.466Z,12.58
2022-10-11T04:15:17.403Z,12.59
2022-10-11T04:17:44.366Z,12.64
2022-10-11T04:20:11.350Z,12.81
2022-10-11T04:22:38.671Z,12.86
2022-10-11T04:25:07.336Z,12.89
2022-10-11T04:27:34.997Z,12.82
2022-10-11T04:30:02.399Z,12.73
2022-10-11T04:32:29.319Z,12.77
2022-10-11T04:34:56.470Z,12.76
2022-10-11T04:37:23.334Z,12.72
2022-10-11T04:39:53.437Z,12.78
2022-10-11T04:42:20.747Z,12.78
2022-10-11T04:44:47.768Z,12.75
2022-10-11T04:47:16.288Z,12.77
2022-10-11T04:49:43.450Z,12.70
2022-10-11T04:52:10.681Z,12.62
2022-10-11T04:54:37.539Z,12.64
2022-10-11T04:57:06.730Z,12.57
2022-10-11T04:59:34.174Z,12.54
2022-10-11T05:02:00.848Z,12.57
2022-10-11T05:04:27.522Z,12.59
2022-10-11T05:06:54.336Z,12.61
2022-10-11T05:09:21.790Z,12.63
2022-10-11T05:11:48.312Z,12.55
2022-10-11T05:14:14.832Z,12.49
2022-10-11T05:16:41.328Z,12.50
2022-10-11T05:19:10.754Z,12.54
2022-10-11T05:21:37.153Z,12.49
2022-10-11T05:24:03.896Z,12.32
2022-10-11T05:26:30.808Z,12.32
2022-10-11T05:28:57.479Z,12.37
2022-10-11T05:31:24.741Z,12.36
2022-10-11T05:33:51.540Z,12.23
2022-10-11T05:36:18.199Z,12.24
2022-10-11T05:38:45.196Z,12.25
2022-10-11T05:41:14.294Z,12.30
2022-10-11T05:43:40.948Z,12.29
2022-10-11T05:46:08.166Z,12.37
2022-10-11T05:48:34.852Z,12.50
2022-10-11T05:51:03.684Z,12.51
2022-10-11T05:53:31.290Z,12.53
2022-10-11T05:55:58.060Z,12.52
2022-10-11T05:58:25.107Z,12.50
2022-10-11T06:00:51.558Z,12.40
2022-10-11T06:03:20.984Z,12.40
2022-10-11T06:05:47.749Z,12.39
2022-10-11T06:08:14.973Z,12.49
2022-10-11T06:10:41.736Z,12.58
2022-10-11T06:13:09.348Z,12.70
2022-10-11T06:15:39.140Z,12.80
2022-10-11T06:18:05.650Z,12.82
2022-10-11T06:20:32.198Z,12.75
2022-10-11T06:22:59.052Z,12.83
2022-10-11T06:25:25.589Z,12.96
2022-10-11T06:27:52.105Z,13.05
2022-10-11T06:30:18.689Z,13.18
2022-10-11T06:32:45.292Z,13.12
2022-10-11T06:35:11.964Z,13.17
2022-10-11T06:37:38.469Z,13.08
2022-10-11T06:40:05.370Z,13.08
2022-10-11T06:42:31.969Z,13.09
2022-10-11T06:44:58.580Z,13.18
2022-10-11T06:47:25.045Z,13.08
2022-10-11T06:49:51.531Z,13.01
2022-10-11T06:52:18.016Z,13.03
2022-10-11T06:54:45.588Z,13.15
2022-10-11T06:57:12.570Z,13.24
2022-10-11T06:59:39.058Z,13.12
2022-10-11T07:02:05.617Z,13.06
2022-10-11T07:04:33.748Z,13.01
2022-10-11T07:07:00.372Z,12.92
2022-10-11T07:09:26.745Z,12.98
2022-10-11T07:11:53.252Z,13.00
2022-10-11T07:14:21.724Z,13.04
2022-10-11T07:16:48.281Z,13.14
2022-10-11T07:19:14.930Z,13.15
2022-10-11T07:21:41.439Z,13.22
2022-10-11T07:24:08.063Z,13.26
2022-10-11T07:26:38.692Z,13.24
2022-10-11T07:29:07.905Z,13.37
2022-10-11T07:32:30.195Z,13.35
2022-10-11T07:34:56.864Z,13.40
2022-10-11T07:37:23.368Z,13.49
2022-10-11T07:39:49.850Z,13.50
2022-10-11T07:42:16.290Z,13.40
2022-10-11T07:44:42.775Z,13.31
2022-10-11T07:47:11.489Z,13.32
2022-10-11T07:49:38.112Z,13.35
2022-10-11T07:52:04.829Z,13.38
2022-10-11T07:54:32.827Z,13.48
2022-10-11T07:56:59.620Z,13.45
2022-10-11T07:59:26.315Z,13.47
2022-10-11T08:01:53.020Z,13.56
2022-10-11T08:04:21.265Z,13.58
2022-10-11T08:06:51.079Z,13.76
2022-10-11T08:09:19.794Z,13.60
2022-10-11T08:11:46.220Z,13.70
2022-10-11T08:14:12.758Z,13.84
2022-10-11T08:16:39.423Z,13.82
2022-10-11T08:19:06.913Z,14.10
2022-10-11T08:21:33.848Z,14.53
2022-10-11T08:24:02.874Z,14.75
2022-10-11T08:26:32.928Z,14.98
2022-10-11T08:29:03.254Z,15.19
2022-10-11T08:31:30.003Z,15.60
2022-10-11T08:33:57.358Z,16.32
2022-10-11T08:36:24.005Z,16.62
2022-10-11T08:38:50.686Z,16.55
2022-10-11T08:41:31.624Z,16.35
2022-10-11T08:43:58.171Z,16.01
2022-10-11T08:46:30.983Z,16.04
2022-10-11T08:48:57.924Z,15.74
2022-10-11T08:51:32.103Z,15.68
2022-10-11T08:54:44.661Z,15.34
2022-10-11T08:57:16.269Z,15.56
2022-10-11T09:00:01.561Z,15.46
2022-10-11T09:03:08.543Z,15.76
2022-10-11T09:05:39.789Z,15.85
2022-10-11T09:08:29.760Z,16.19
2022-10-11T09:11:14.326Z,16.36
2022-10-11T09:14:07.617Z,16.10
2022-10-11T09:16:48.019Z,15.81
2022-10-11T09:19:41.882Z,15.74
2022-10-11T09:22:20.556Z,15.74
2022-10-11T09:25:15.322Z,15.86
2022-10-11T09:28:08.798Z,15.88
2022-10-11T09:30:39.696Z,16.10
2022-10-11T09:33:23.165Z,16.09
2022-10-11T09:35:52.810Z,16.02
2022-10-11T09:38:25.353Z,16.21
2022-10-11T09:41:05.765Z,15.89
2022-10-11T09:43:32.567Z,15.96
2022-10-11T09:45:59.191Z,15.98
2022-10-11T09:48:38.740Z,15.96
2022-10-11T09:51:11.614Z,15.90
2022-10-11T09:53:54.971Z,15.91
2022-10-11T09:56:24.125Z,15.94
2022-10-11T09:59:29.583Z,16.29
2022-10-11T10:02:15.009Z,16.26
2022-10-11T10:04:53.845Z,16.26
2022-10-11T10:07:21.645Z,16.54
2022-10-11T10:09:49.656Z,16.26
2022-10-11T10:12:22.936Z,16.51
2022-10-11T10:15:03.927Z,16.92
2022-10-11T10:17:31.272Z,17.21
2022-10-11T10:20:00.496Z,17.44
2022-10-11T10:22:33.627Z,17.44
2022-10-11T10:25:02.947Z,17.27
2022-10-11T10:27:31.036Z,17.25
2022-10-11T10:30:02.535Z,16.79
2022-10-11T10:32:36.874Z,16.63
2022-10-11T10:35:35.601Z,16.73
2022-10-11T10:38:24.104Z,16.98
2022-10-11T10:40:56.598Z,16.82
2022-10-11T10:43:26.641Z,16.79
2022-10-11T10:46:26.617Z,16.71
2022-10-11T10:49:52.571Z,16.46
2022-10-11T10:52:34.438Z,16.62
2022-10-11T10:55:14.016Z,16.91
2022-10-11T10:57:57.888Z,16.98
2022-10-11T11:00:25.009Z,16.83
2022-10-11T11:03:11.315Z,16.97
2022-10-11T11:05:57.575Z,17.09
2022-10-11T11:08:35.750Z,17.14
2022-10-11T11:11:26.691Z,17.16
2022-10-11T11:14:27.931Z,17.78
2022-10-11T11:17:06.217Z,17.70
2022-10-11T11:20:01.235Z,17.78
2022-10-11T11:22:57.923Z,17.64
2022-10-11T11:25:40.319Z,17.68
2022-10-11T11:28:35.265Z,17.37
2022-10-11T11:31:22.036Z,17.02
2022-10-11T11:34:29.105Z,16.68
2022-10-11T11:37:00.618Z,16.51
2022-10-11T11:39:35.746Z,16.57
2022-10-11T11:42:15.238Z,16.62
2022-10-11T11:44:46.774Z,16.47
2022-10-11T11:47:25.858Z,16.82
2022-10-11T11:50:07.447Z,16.64
2022-10-11T11:52:37.731Z,16.73
2022-10-11T11:55:36.796Z,16.81
2022-10-11T11:58:34.310Z,16.87
2022-10-11T12:01:31.479Z,16.90
2022-10-11T12:04:32.500Z,16.97
2022-10-11T12:07:17.752Z,16.79
2022-10-11T12:09:50.796Z,16.74
2022-10-11T12:12:36.621Z,16.90
2022-10-11T12:15:09.299Z,17.05
2022-10-11T12:18:13.819Z,17.09
2022-10-11T12:20:41.956Z,17.04
2022-10-11T12:23:30.442Z,16.66
2022-10-11T12:26:28.254Z,17.11
2022-10-11T12:29:46.194Z,16.94
2022-10-11T12:32:28.282Z,17.05
2022-10-11T12:35:33.413Z,17.02
2022-10-11T12:38:17.016Z,17.04
2022-10-11T12:40:47.140Z,17.31
2022-10-11T12:43:19.760Z,17.11
2022-10-11T12:45:48.069Z,17.15
2022-10-11T12:48:26.419Z,17.40
2022-10-11T12:51:20.763Z,17.45
2022-10-11T12:54:36.846Z,17.55
2022-10-11T12:57:28.562Z,17.93
2022-10-11T13:00:10.000Z,17.98
2022-10-11T13:02:42.646Z,17.92
2022-10-11T13:05:35.961Z,17.66
2022-10-11T13:08:05.481Z,17.41
2022-10-11T13:10:43.758Z,17.60
2022-10-11T13:13:21.444Z,17.39
2022-10-11T13:15:48.448Z,17.47
2022-10-11T13:18:16.854Z,17.79
2022-10-11T13:20:43.955Z,17.92
2022-10-11T13:23:39.773Z,17.62
2022-10-11T13:26:06.917Z,17.42
2022-10-11T13:28:36.639Z,17.39
2022-10-11T13:31:04.555Z,17.11
2022-10-11T13:33:34.491Z,17.14
2022-10-11T13:36:05.322Z,17.16
2022-10-11T13:38:35.657Z,17.14
2022-10-11T13:41:08.658Z,17.42
2022-10-11T13:43:36.677Z,17.46
2022-10-11T13:46:06.763Z,17.62
2022-10-11T13:48:41.523Z,17.59
2022-10-11T13:51:27.653Z,17.26
2022-10-11T13:54:05.631Z,17.46
2022-10-11T13:56:37.797Z,17.51
2022-10-11T13:59:07.811Z,17.53
2022-10-11T14:01:44.034Z,17.40
2022-10-11T14:04:12.768Z,17.45
2022-10-11T14:06:45.301Z,17.46
2022-10-11T14:09:20.196Z,17.05
2022-10-11T14:11:47.319Z,16.86
2022-10-11T14:14:40.480Z,16.80
2022-10-11T14:17:16.985Z,16.96
2022-10-11T14:19:45.997Z,16.85
2022-10-11T14:22:18.119Z,16.77
2022-10-11T14:24:48.437Z,16.74
2022-10-11T14:27:19.310Z,16.85
2022-10-11T14:30:00.543Z,16.77
2022-10-11T14:32:34.764Z,17.05
2022-10-11T14:35:01.397Z,16.84
2022-10-11T14:37:28.019Z,16.72
2022-10-11T14:39:54.643Z,16.55
2022-10-11T14:42:21.238Z,16.52
2022-10-11T14:44:47.764Z,16.60
2022-10-11T14:47:17.374Z,16.59
2022-10-11T14:49:44.296Z,16.60
2022-10-11T14:52:13.074Z,16.68
2022-10-11T14:54:40.030Z,16.53
2022-10-11T14:57:06.578Z,16.48
2022-10-11T14:59:37.813Z,16.50
2022-10-11T15:02:07.800Z,16.60
2022-10-11T15:04:34.574Z,16.49
2022-10-11T15:07:01.334Z,16.41
2022-10-11T15:09:29.243Z,16.47
2022-10-11T15:11:56.901Z,16.30
2022-10-11T15:14:24.125Z,16.13
2022-10-11T15:16:50.757Z,16.23
2022-10-11T15:19:22.587Z,16.41
2022-10-11T15:21:49.510Z,16.48
2022-10-11T15:24:19.821Z,16.41
2022-10-11T15:26:47.309Z,16.43
2022-10-11T15:29:14.664Z,16.37
2022-10-11T15:31:41.365Z,16.49
2022-10-11T15:34:07.887Z,16.53
2022-10-11T15:36:34.662Z,16.47
2022-10-11T15:39:01.897Z,16.37
2022-10-11T15:41:28.388Z,16.32
2022-10-11T15:43:54.826Z,16.16
2022-10-11T15:46:22.545Z,16.16
2022-10-11T15:48:50.239Z,16.11
2022-10-11T15:51:17.225Z,16.03
2022-10-11T15:53:44.108Z,15.98
2022-10-11T15:56:15.292Z,15.98
2022-10-11T15:58:42.657Z,15.99
2022-10-11T16:01:18.117Z,15.86
2022-10-11T16:03:49.101Z,15.72
2022-10-11T16:06:17.112Z,15.67
2022-10-11T16:08:44.958Z,15.52
2022-10-11T16:11:12.525Z,15.58
2022-10-11T16:13:39.337Z,15.57
2022-10-11T16:16:08.271Z,15.61
2022-10-11T16:18:36.152Z,15.62
2022-10-11T16:21:08.643Z,15.55
2022-10-11T16:23:36.387Z,15.45
2022-10-11T16:26:06.968Z,15.18
2022-10-11T16:28:34.314Z,15.19
2022-10-11T16:31:06.740Z,15.25
2022-10-11T16:33:33.537Z,15.20
2022-10-11T16:36:19.999Z,15.13
2022-10-11T16:38:46.477Z,15.16
2022-10-11T16:41:13.022Z,15.11
2022-10-11T16:43:40.128Z,15.15
2022-10-11T16:46:07.088Z,15.12
2022-10-11T16:48:33.972Z,15.09
2022-10-11T16:51:07.916Z,15.05
2022-10-11T16:53:38.019Z,15.07
2022-10-11T16:56:09.793Z,15.08
2022-10-11T16:58:36.848Z,15.09
2022-10-11T17:01:08.743Z,15.06
2022-10-11T17:03:35.394Z,14.97
2022-10-11T17:06:02.209Z,14.79
2022-10-11T17:08:29.164Z,14.82
2022-10-11T17:10:57.692Z,14.77
2022-10-11T17:13:24.697Z,14.51
2022-10-11T17:15:51.177Z,14.33
2022-10-11T17:18:17.842Z,14.24
2022-10-11T17:20:44.567Z,14.07
2022-10-11T17:23:11.414Z,14.04
2022-10-11T17:25:43.095Z,14.09
2022-10-11T17:28:09.761Z,14.07
2022-10-11T17:30:37.773Z,14.05
2022-10-11T17:33:04.339Z,14.05
2022-10-11T17:35:32.344Z,14.15
2022-10-11T17:38:05.004Z,14.18
2022-10-11T17:40:33.976Z,14.20
2022-10-11T17:43:00.718Z,14.32
2022-10-11T17:45:27.308Z,14.33
2022-10-11T17:47:53.853Z,14.25
2022-10-11T17:50:20.389Z,14.15
2022-10-11T17:52:47.140Z,14.25
2022-10-11T17:55:13.690Z,14.19
2022-10-11T17:57:40.191Z,14.07
2022-10-11T18:00:07.411Z,14.09
2022-10-11T18:02:33.861Z,14.20
2022-10-11T18:05:00.291Z,14.25
2022-10-11T18:07:26.891Z,14.30
2022-10-11T18:09:54.367Z,14.22
2022-10-11T18:12:20.960Z,14.21
2022-10-11T18:14:47.674Z,14.24
2022-10-11T18:17:18.263Z,14.18
2022-10-11T18:19:44.927Z,14.24
2022-10-11T18:22:11.377Z,14.30
2022-10-11T18:24:39.086Z,14.33
2022-10-11T18:27:05.858Z,14.19
2022-10-11T18:29:32.479Z,14.09
2022-10-11T18:31:59.013Z,14.03
2022-10-11T18:34:25.759Z,14.09
2022-10-11T18:36:52.281Z,14.21
2022-10-11T18:39:20.826Z,14.05
2022-10-11T18:41:47.370Z,14.04
2022-10-11T18:44:15.493Z,13.98
2022-10-11T18:46:43.019Z,13.81
2022-10-11T18:49:09.922Z,13.76
2022-10-11T18:51:39.084Z,13.81
2022-10-11T18:54:07.453Z,13.87
2022-10-11T18:56:35.586Z,13.89
2022-10-11T18:59:02.106Z,13.93
2022-10-11T19:01:31.721Z,13.84
2022-10-11T19:04:00.647Z,13.80
2022-10-11T19:06:33.253Z,13.81
2022-10-11T19:09:04.184Z,13.86
2022-10-11T19:11:31.317Z,13.91
2022-10-11T19:14:00.588Z,13.82
2022-10-11T19:16:32.482Z,13.83
2022-10-11T19:19:01.895Z,13.84
2022-10-11T19:21:29.418Z,13.79
2022-10-11T19:23:57.143Z,13.66
2022-10-11T19:26:35.859Z,13.65
2022-10-11T19:29:03.977Z,13.64
2022-10-11T19:31:32.303Z,13.59
2022-10-11T19:33:59.534Z,13.47
2022-10-11T19:36:26.813Z,13.36
2022-10-11T19:38:56.917Z,13.29
2022-10-11T19:41:25.227Z,13.28
2022-10-11T19:43:52.489Z,13.23
2022-10-11T19:46:44.595Z,13.31
2022-10-11T19:49:08.438Z,13.29
2022-10-11T19:51:35.334Z,13.34
2022-10-11T19:54:04.346Z,13.39
2022-10-11T19:56:32.808Z,13.39
2022-10-11T19:59:00.860Z,13.28
2022-10-11T20:01:30.320Z,13.30
2022-10-11T20:04:03.673Z,13.08
2022-10-11T20:06:37.235Z,12.97
2022-10-11T20:09:28.000Z,12.93
2022-10-11T20:11:51.537Z,12.82
2022-10-11T20:14:20.095Z,12.87
2022-10-11T20:16:50.042Z,12.88
2022-10-11T20:19:16.717Z,12.86
2022-10-11T20:21:44.011Z,12.86
2022-10-11T20:24:10.788Z,12.87
2022-10-11T20:26:37.399Z,12.94
2022-10-11T20:29:03.812Z,12.98
2022-10-11T20:31:33.072Z,13.12
2022-10-11T20:34:02.195Z,13.11
2022-10-11T20:36:30.151Z,13.11
2022-10-11T20:38:58.074Z,13.13
2022-10-11T20:41:33.477Z,13.04
2022-10-11T20:44:01.423Z,12.95
2022-10-11T20:46:33.009Z,12.85
2022-10-11T20:49:02.526Z,12.91
2022-10-11T20:51:30.868Z,12.86
2022-10-11T20:53:58.861Z,12.89
2022-10-11T20:56:25.729Z,12.93
2022-10-11T20:58:54.961Z,13.02
2022-10-11T21:01:43.063Z,13.07
2022-10-11T21:04:17.506Z,13.03
2022-10-11T21:06:44.259Z,13.00
2022-10-11T21:09:14.051Z,13.13
2022-10-11T21:11:42.886Z,13.08
2022-10-11T21:14:09.380Z,13.03
2022-10-11T21:16:36.515Z,12.98
2022-10-11T21:19:03.914Z,12.96
2022-10-11T21:21:31.161Z,12.87
2022-10-11T21:24:00.611Z,12.89
2022-10-11T21:26:27.638Z,12.94
2022-10-11T21:28:54.418Z,12.98
2022-10-11T21:31:22.466Z,13.00
2022-10-11T21:33:49.145Z,12.99
2022-10-11T21:36:20.727Z,12.91
2022-10-11T21:38:48.019Z,12.85
2022-10-11T21:41:25.444Z,12.79
2022-10-11T21:43:52.779Z,12.82
2022-10-11T21:46:20.602Z,12.82
2022-10-11T21:48:48.068Z,12.78
2022-10-11T21:51:17.429Z,12.86
2022-10-11T21:53:44.024Z,12.78
2022-10-11T21:56:10.761Z,12.79
2022-10-11T21:58:37.427Z,12.66
2022-10-11T22:01:04.148Z,12.65
2022-10-11T22:03:30.751Z,12.65
2022-10-11T22:05:58.695Z,12.57
2022-10-11T22:08:25.115Z,12.47
2022-10-11T22:10:58.838Z,12.42
2022-10-11T22:13:26.983Z,12.54
2022-10-11T22:15:53.615Z,12.60
2022-10-11T22:18:20.457Z,12.50
2022-10-11T22:20:47.102Z,12.56
2022-10-11T22:23:13.837Z,12.67
2022-10-11T22:25:43.218Z,12.72
2022-10-11T22:28:09.841Z,12.62
2022-10-11T22:30:36.343Z,12.42
2022-10-11T22:33:02.995Z,12.31
2022-10-11T22:35:31.395Z,12.15
2022-10-11T22:38:00.071Z,12.01
2022-10-11T22:40:26.714Z,11.97
2022-10-11T22:42:53.459Z,12.01
2022-10-11T22:45:19.944Z,12.00
2022-10-11T22:47:46.462Z,12.07
2022-10-11T22:50:12.889Z,12.23
2022-10-11T22:52:39.359Z,12.22
2022-10-11T22:55:06.481Z,12.11
2022-10-11T22:57:32.949Z,12.00
2022-10-11T22:59:59.443Z,11.84
2022-10-11T23:02:26.013Z,11.70
2022-10-11T23:04:54.177Z,11.50
2022-10-11T23:07:22.252Z,11.42
2022-10-11T23:09:48.749Z,11.38
2022-10-11T23:12:15.221Z,11.43
2022-10-11T23:14:41.688Z,11.43
2022-10-11T23:17:08.124Z,11.43
2022-10-11T23:19:34.527Z,11.45
2022-10-11T23:22:00.978Z,11.50
2022-10-11T23:24:27.424Z,11.47
2022-10-11T23:26:53.907Z,11.48
2022-10-11T23:29:20.597Z,11.46
2022-10-11T23:31:47.209Z,11.56
2022-10-11T23:34:14.259Z,11.65
2022-10-11T23:36:40.878Z,11.67
2022-10-11T23:39:07.411Z,11.79
2022-10-11T23:41:34.010Z,11.65
2022-10-11T23:44:00.450Z,11.61
2022-10-11T23:46:27.289Z,11.57
2022-10-11T23:48:53.785Z,11.54
2022-10-11T23:51:20.304Z,11.52
2022-10-11T23:53:46.853Z,11.53
2022-10-11T23:56:13.688Z,11.56
2022-10-11T23:58:40.347Z,11.55
